Rechercher aéroport 
image banner adimage banner adimage banner ad
image banner ad

02CA - Beta Platform Ellen

Situé à Huntington Beach, United States

ICAO - 02CA, IATA -

Données fournies par Airmate  

Information générale

Coordonnées: N33°34'58" W118°7'44"
Élévation : 122 feet MSL.
Variation magnétique : 14° East
Voir autres Aéroports à California

Données opérationnelles

Special qualification required
Heure actuelle UTC:
Heure actuelle locale:
Météo à : KSLI - Los Alamitos Aaf ( 24 km )
METAR: KSLI 020458Z AUTO 00000KT 10SM CLR 21/12 A3002 RMK AO2 SLP169 T02070124 $
TAF: TAF KSLI 012100Z 0121/0303 VRB06KT 9999 SKC QNH2997INS BECMG 0207/0208 25006KT 9999 OVC010 QNH2998INS BECMG 0221/0222 25006KT 9999 NSW SKC QNH2992IN TX31/0200Z TN16/0214Z
Voir NOTAMs / SUP AIP / TFR affectant cet aéroport [VIEW]
Fréquences de communication: [VIEW]

Pistes:

Coordonnées de l'aéroport

Adresse: Huntington Beach United States

Vue satellite de 02CA